createdAt,value
2023-05-12T00:02:54.874Z,11.60
2023-05-12T00:06:00.406Z,11.54
2023-05-12T00:09:02.651Z,11.63
2023-05-12T00:12:05.503Z,11.57
2023-05-12T00:15:07.970Z,11.56
2023-05-12T00:18:10.587Z,11.59
2023-05-12T00:21:12.878Z,11.61
2023-05-12T00:24:15.510Z,11.61
2023-05-12T00:27:18.898Z,11.60
2023-05-12T00:30:21.787Z,11.60
2023-05-12T00:33:24.102Z,11.58
2023-05-12T00:36:26.718Z,11.58
2023-05-12T00:39:29.923Z,11.63
2023-05-12T00:42:33.868Z,11.68
2023-05-12T00:45:36.761Z,11.65
2023-05-12T00:48:39.477Z,11.62
2023-05-12T00:51:42.718Z,11.61
2023-05-12T00:54:45.699Z,11.62
2023-05-12T00:57:47.956Z,11.64
2023-05-12T01:00:51.022Z,11.63
2023-05-12T01:03:53.878Z,11.68
2023-05-12T01:07:17.899Z,11.64
2023-05-12T01:10:21.642Z,11.64
2023-05-12T01:13:24.523Z,11.69
2023-05-12T01:16:31.444Z,11.66
2023-05-12T01:19:41.380Z,11.72
2023-05-12T01:22:44.201Z,11.67
2023-05-12T01:25:49.237Z,11.57
2023-05-12T01:28:52.026Z,11.56
2023-05-12T01:31:55.332Z,11.53
2023-05-12T01:34:57.697Z,11.47
2023-05-12T01:38:00.598Z,11.55
2023-05-12T01:41:03.052Z,11.71
2023-05-12T01:44:06.927Z,11.60
2023-05-12T01:47:11.233Z,11.55
2023-05-12T01:50:14.260Z,11.49
2023-05-12T01:53:16.700Z,11.50
2023-05-12T01:56:20.036Z,11.54
2023-05-12T01:59:22.437Z,11.48
2023-05-12T02:02:25.680Z,11.43
2023-05-12T02:05:28.454Z,11.46
2023-05-12T02:08:31.076Z,11.47
2023-05-12T02:11:33.727Z,11.47
2023-05-12T02:14:36.071Z,11.46
2023-05-12T02:17:38.993Z,11.47
2023-05-12T02:20:41.487Z,11.44
2023-05-12T02:23:44.476Z,11.38
2023-05-12T02:26:47.890Z,11.37
2023-05-12T02:29:50.557Z,11.30
2023-05-12T02:32:53.065Z,11.27
2023-05-12T02:35:56.141Z,11.26
2023-05-12T02:38:59.000Z,11.22
2023-05-12T02:42:01.695Z,11.20
2023-05-12T02:45:04.124Z,11.20
2023-05-12T02:48:07.748Z,11.21
2023-05-12T02:51:10.218Z,11.19
2023-05-12T02:54:12.798Z,11.16
2023-05-12T02:57:15.135Z,11.19
2023-05-12T03:00:17.946Z,11.11
2023-05-12T03:03:20.551Z,11.01
2023-05-12T03:06:23.364Z,10.97
2023-05-12T03:09:25.656Z,10.90
2023-05-12T03:12:31.436Z,10.99
2023-05-12T03:15:33.785Z,10.98
2023-05-12T03:18:36.535Z,10.94
2023-05-12T03:21:38.961Z,10.89
2023-05-12T03:24:41.592Z,10.91
2023-05-12T03:27:43.981Z,10.84
2023-05-12T03:30:46.651Z,10.82
2023-05-12T03:33:48.982Z,10.85
2023-05-12T03:36:51.741Z,10.83
2023-05-12T03:39:56.138Z,10.77
2023-05-12T03:42:58.978Z,10.83
2023-05-12T03:46:01.904Z,10.83
2023-05-12T03:49:05.559Z,10.77
2023-05-12T03:52:07.885Z,10.81
2023-05-12T03:55:11.055Z,10.84
2023-05-12T03:58:13.387Z,10.84
2023-05-12T04:01:15.984Z,10.85
2023-05-12T04:04:19.171Z,10.89
2023-05-12T04:07:21.676Z,10.96
2023-05-12T04:10:24.267Z,10.96
2023-05-12T04:13:27.253Z,10.91
2023-05-12T04:16:29.897Z,10.94
2023-05-12T04:19:34.230Z,10.95
2023-05-12T04:22:36.904Z,10.98
2023-05-12T04:25:42.468Z,11.06
2023-05-12T04:28:45.145Z,11.14
2023-05-12T04:31:47.559Z,11.18
2023-05-12T04:34:51.629Z,11.22
2023-05-12T04:37:54.181Z,11.27
2023-05-12T04:40:59.162Z,11.39
2023-05-12T04:44:01.632Z,11.49
2023-05-12T04:47:04.342Z,11.44
2023-05-12T04:50:06.897Z,11.45
2023-05-12T04:53:10.950Z,11.54
2023-05-12T04:56:14.105Z,11.62
2023-05-12T04:59:16.774Z,11.66
2023-05-12T05:02:20.098Z,11.78
2023-05-12T05:05:23.031Z,11.66
2023-05-12T05:08:26.148Z,11.73
2023-05-12T05:11:28.777Z,11.79
2023-05-12T05:14:33.336Z,11.90
2023-05-12T05:17:36.460Z,11.92
2023-05-12T05:20:40.936Z,11.89
2023-05-12T05:23:46.545Z,11.90
2023-05-12T05:26:49.975Z,11.88
2023-05-12T05:29:53.217Z,12.00
2023-05-12T05:32:55.814Z,12.00
2023-05-12T05:35:58.909Z,12.00
2023-05-12T05:39:01.745Z,12.08
2023-05-12T05:42:04.389Z,12.14
2023-05-12T05:45:07.103Z,12.16
2023-05-12T05:48:10.012Z,12.09
2023-05-12T05:51:13.499Z,12.10
2023-05-12T05:54:16.589Z,12.12
2023-05-12T05:57:19.380Z,12.13
2023-05-12T06:00:22.429Z,12.26
2023-05-12T06:03:26.007Z,12.36
2023-05-12T06:06:28.901Z,12.39
2023-05-12T06:09:32.458Z,12.57
2023-05-12T06:12:34.853Z,12.49
2023-05-12T06:15:37.506Z,12.54
2023-05-12T06:18:40.235Z,12.61
2023-05-12T06:21:43.645Z,12.51
2023-05-12T06:24:45.944Z,12.43
2023-05-12T06:27:50.561Z,12.55
2023-05-12T06:30:52.902Z,12.68
2023-05-12T06:33:55.504Z,12.68
2023-05-12T06:36:57.894Z,12.62
2023-05-12T06:40:00.604Z,12.78
2023-05-12T06:43:02.937Z,12.99
2023-05-12T06:46:06.934Z,13.09
2023-05-12T06:49:10.431Z,13.11
2023-05-12T06:52:13.076Z,13.13
2023-05-12T06:55:20.021Z,13.19
2023-05-12T06:58:22.934Z,13.24
2023-05-12T07:01:25.310Z,13.24
2023-05-12T07:04:28.042Z,13.26
2023-05-12T07:07:30.376Z,13.34
2023-05-12T07:10:33.277Z,13.43
2023-05-12T07:13:35.563Z,13.34
2023-05-12T07:16:38.288Z,13.34
2023-05-12T07:19:40.694Z,13.50
2023-05-12T07:22:43.273Z,13.66
2023-05-12T07:25:45.612Z,13.85
2023-05-12T07:28:48.304Z,13.71
2023-05-12T07:31:50.980Z,13.71
2023-05-12T07:34:53.663Z,13.74
2023-05-12T07:37:55.946Z,13.80
2023-05-12T07:40:59.167Z,13.97
2023-05-12T07:44:02.328Z,13.90
2023-05-12T07:47:05.759Z,13.85
2023-05-12T07:50:08.386Z,13.91
2023-05-12T07:53:11.253Z,13.87
2023-05-12T07:56:13.593Z,13.88
2023-05-12T07:59:16.529Z,13.73
2023-05-12T08:02:20.647Z,13.69
2023-05-12T08:05:23.444Z,13.68
2023-05-12T08:08:25.771Z,13.58
2023-05-12T08:11:28.454Z,13.58
2023-05-12T08:14:30.759Z,13.66
2023-05-12T08:17:33.420Z,13.68
2023-05-12T08:20:36.122Z,13.72
2023-05-12T08:23:38.737Z,13.87
2023-05-12T08:26:41.040Z,14.03
2023-05-12T08:29:43.646Z,14.09
2023-05-12T08:32:46.297Z,14.08
2023-05-12T08:35:48.944Z,13.98
2023-05-12T08:38:51.335Z,14.12
2023-05-12T08:42:03.685Z,14.24
2023-05-12T08:45:07.064Z,14.28
2023-05-12T08:48:10.736Z,14.43
2023-05-12T08:51:14.211Z,14.34
2023-05-12T08:54:18.964Z,14.24
2023-05-12T08:57:21.871Z,14.08
2023-05-12T09:00:25.880Z,13.81
2023-05-12T09:03:31.204Z,13.85
2023-05-12T09:06:34.127Z,13.81
2023-05-12T09:09:38.078Z,13.83
2023-05-12T09:12:41.462Z,13.75
2023-05-12T09:15:45.633Z,13.35
2023-05-12T09:18:55.425Z,13.19
2023-05-12T09:21:58.971Z,13.13
2023-05-12T09:25:01.854Z,13.03
2023-05-12T09:28:04.269Z,12.94
2023-05-12T09:31:17.044Z,12.75
2023-05-12T09:34:20.326Z,12.86
2023-05-12T09:37:29.908Z,12.82
2023-05-12T09:40:32.162Z,12.74
2023-05-12T09:43:35.357Z,12.54
2023-05-12T09:46:39.773Z,12.61
2023-05-12T09:49:46.153Z,12.41
2023-05-12T09:52:50.319Z,12.36
2023-05-12T09:55:53.007Z,12.30
2023-05-12T09:58:57.090Z,12.20
2023-05-12T10:02:03.721Z,12.09
2023-05-12T10:05:07.252Z,11.99
2023-05-12T10:08:11.060Z,11.84
2023-05-12T10:11:14.060Z,11.73
2023-05-12T10:14:16.987Z,11.74
2023-05-12T10:17:20.402Z,11.63
2023-05-12T10:20:23.077Z,11.32
2023-05-12T10:23:26.781Z,11.28
2023-05-12T10:26:29.732Z,11.42
2023-05-12T10:29:33.228Z,11.52
2023-05-12T10:32:35.762Z,11.66
2023-05-12T10:35:39.515Z,11.69
2023-05-12T10:38:41.767Z,11.58
2023-05-12T10:41:44.444Z,11.58
2023-05-12T10:44:51.182Z,11.52
2023-05-12T10:48:04.606Z,11.57
2023-05-12T10:51:10.697Z,11.46
2023-05-12T10:54:21.163Z,11.38
2023-05-12T10:57:23.928Z,11.22
2023-05-12T11:00:28.942Z,11.20
2023-05-12T11:03:34.795Z,10.99
2023-05-12T11:06:40.423Z,10.93
2023-05-12T11:09:56.764Z,10.94
2023-05-12T11:13:00.893Z,11.02
2023-05-12T11:16:03.328Z,11.00
2023-05-12T11:19:06.190Z,11.13
2023-05-12T11:22:09.449Z,11.34
2023-05-12T11:25:12.526Z,11.51
2023-05-12T11:28:14.887Z,11.65
2023-05-12T11:31:19.162Z,11.68
2023-05-12T11:34:22.605Z,11.60
2023-05-12T11:37:25.452Z,11.75
2023-05-12T11:40:27.768Z,11.68
2023-05-12T11:43:30.436Z,11.67
2023-05-12T11:46:33.959Z,11.83
2023-05-12T11:49:46.157Z,11.87
2023-05-12T11:52:50.981Z,11.80
2023-05-12T11:55:54.816Z,11.92
2023-05-12T11:58:58.246Z,12.00
2023-05-12T12:02:04.284Z,11.98
2023-05-12T12:05:16.637Z,12.09
2023-05-12T12:08:19.099Z,12.06
2023-05-12T12:11:22.632Z,12.16
2023-05-12T12:14:24.984Z,12.26
2023-05-12T12:17:30.915Z,12.37
2023-05-12T12:20:33.360Z,12.39
2023-05-12T12:23:49.910Z,12.39
2023-05-12T12:26:53.554Z,12.33
2023-05-12T12:29:56.249Z,12.37
2023-05-12T12:32:58.714Z,12.29
2023-05-12T12:36:01.548Z,12.30
2023-05-12T12:39:04.452Z,12.24
2023-05-12T12:42:07.129Z,12.07
2023-05-12T12:45:10.098Z,12.08
2023-05-12T12:48:12.974Z,12.06
2023-05-12T12:51:15.500Z,12.16
2023-05-12T12:54:18.099Z,12.21
2023-05-12T12:57:22.157Z,12.14
2023-05-12T13:00:25.247Z,12.11
2023-05-12T13:03:27.589Z,12.14
2023-05-12T13:06:30.309Z,12.01
2023-05-12T13:09:32.692Z,11.97
2023-05-12T13:12:35.779Z,12.00
2023-05-12T13:15:38.624Z,11.97
2023-05-12T13:18:41.434Z,11.95
2023-05-12T13:21:43.853Z,11.92
2023-05-12T13:24:46.585Z,11.92
2023-05-12T13:27:48.891Z,11.92
2023-05-12T13:30:52.523Z,11.92
2023-05-12T13:33:54.827Z,11.98
2023-05-12T13:36:57.443Z,12.04
2023-05-12T13:39:59.897Z,11.91
2023-05-12T13:43:02.720Z,12.03
2023-05-12T13:46:05.185Z,11.95
2023-05-12T13:49:07.928Z,11.98
2023-05-12T13:52:10.390Z,11.88
2023-05-12T13:55:20.492Z,11.97
2023-05-12T13:58:23.658Z,11.84
2023-05-12T14:01:26.383Z,11.84
2023-05-12T14:04:29.086Z,11.77
2023-05-12T14:07:31.523Z,11.68
2023-05-12T14:10:35.442Z,11.71
2023-05-12T14:13:37.796Z,11.64
2023-05-12T14:16:40.978Z,11.47
2023-05-12T14:19:43.381Z,11.49
2023-05-12T14:22:46.026Z,11.45
2023-05-12T14:25:48.345Z,11.36
2023-05-12T14:28:50.935Z,11.23
2023-05-12T14:31:53.347Z,11.12
2023-05-12T14:34:55.923Z,11.07
2023-05-12T14:37:58.306Z,11.06
2023-05-12T14:41:00.912Z,11.10
2023-05-12T14:44:03.259Z,11.04
2023-05-12T14:47:07.515Z,11.00
2023-05-12T14:50:11.392Z,10.95
2023-05-12T14:53:14.607Z,10.97
2023-05-12T14:56:16.988Z,10.96
2023-05-12T14:59:19.616Z,10.90
2023-05-12T15:02:22.129Z,10.85
2023-05-12T15:05:36.165Z,10.83
2023-05-12T15:08:46.987Z,10.82
2023-05-12T15:11:49.995Z,10.84
2023-05-12T15:14:52.561Z,10.87
2023-05-12T15:17:55.148Z,10.89
2023-05-12T15:20:57.596Z,10.90
2023-05-12T15:24:00.513Z,10.84
2023-05-12T15:27:02.919Z,10.92
2023-05-12T15:30:05.823Z,10.88
2023-05-12T15:33:09.152Z,10.85
2023-05-12T15:36:13.431Z,10.87
2023-05-12T15:39:16.922Z,10.96
2023-05-12T15:42:26.208Z,11.00
2023-05-12T15:45:37.468Z,11.08
2023-05-12T15:48:40.097Z,10.98
2023-05-12T15:51:42.370Z,10.98
2023-05-12T15:54:44.944Z,11.07
2023-05-12T15:57:47.298Z,11.07
2023-05-12T16:00:49.912Z,11.03
2023-05-12T16:03:53.714Z,11.05
2023-05-12T16:06:57.099Z,11.00
2023-05-12T16:09:59.738Z,11.06
2023-05-12T16:13:02.118Z,11.01
2023-05-12T16:16:05.495Z,11.02
2023-05-12T16:19:08.104Z,11.02
2023-05-12T16:22:10.770Z,11.04
2023-05-12T16:25:13.040Z,11.05
2023-05-12T16:28:16.047Z,11.00
2023-05-12T16:31:19.824Z,10.95
2023-05-12T16:34:22.572Z,10.91
2023-05-12T16:37:26.386Z,10.82
2023-05-12T16:40:29.331Z,10.87
2023-05-12T16:43:31.710Z,10.78
2023-05-12T16:46:34.528Z,10.73
2023-05-12T16:49:36.928Z,10.74
2023-05-12T16:52:39.516Z,10.76
2023-05-12T16:55:41.747Z,10.78
2023-05-12T16:58:44.376Z,10.75
2023-05-12T17:01:47.153Z,10.68
2023-05-12T17:04:49.746Z,10.65
2023-05-12T17:07:52.403Z,10.64
2023-05-12T17:10:54.995Z,10.61
2023-05-12T17:13:57.418Z,10.58
2023-05-12T17:17:00.493Z,10.61
2023-05-12T17:20:03.782Z,10.59
2023-05-12T17:23:06.608Z,10.53
2023-05-12T17:26:08.890Z,10.43
2023-05-12T17:29:11.891Z,10.44
2023-05-12T17:32:14.174Z,10.45
2023-05-12T17:35:16.745Z,10.50
2023-05-12T17:38:20.219Z,10.48
2023-05-12T17:41:22.789Z,10.45
2023-05-12T17:44:25.226Z,10.52
2023-05-12T17:47:28.139Z,10.45
2023-05-12T17:50:30.416Z,10.39
2023-05-12T17:53:34.091Z,10.40
2023-05-12T17:56:36.650Z,10.34
2023-05-12T17:59:39.271Z,10.28
2023-05-12T18:02:41.908Z,10.27
2023-05-12T18:05:44.689Z,10.31
2023-05-12T18:08:47.194Z,10.28
2023-05-12T18:11:49.973Z,10.23
2023-05-12T18:14:53.233Z,10.23
2023-05-12T18:17:57.891Z,10.29
2023-05-12T18:21:00.708Z,10.21
2023-05-12T18:24:03.463Z,10.18
2023-05-12T18:27:06.617Z,10.15
2023-05-12T18:30:09.541Z,10.11
2023-05-12T18:33:11.980Z,10.12
2023-05-12T18:36:15.144Z,10.12
2023-05-12T18:39:18.319Z,10.15
2023-05-12T18:42:20.988Z,10.13
2023-05-12T18:45:23.496Z,10.17
2023-05-12T18:48:26.261Z,10.16
2023-05-12T18:51:28.833Z,10.18
2023-05-12T18:54:31.701Z,10.14
2023-05-12T18:57:34.107Z,10.21
2023-05-12T19:00:36.705Z,10.23
2023-05-12T19:03:39.037Z,10.20
2023-05-12T19:06:42.635Z,10.15
2023-05-12T19:09:45.183Z,10.19
2023-05-12T19:12:51.130Z,10.19
2023-05-12T19:15:53.504Z,10.16
2023-05-12T19:18:56.468Z,10.17
2023-05-12T19:21:58.831Z,10.19
2023-05-12T19:25:02.112Z,10.17
2023-05-12T19:28:04.864Z,10.20
2023-05-12T19:31:07.591Z,10.20
2023-05-12T19:34:10.049Z,10.22
2023-05-12T19:37:12.668Z,10.17
2023-05-12T19:40:15.131Z,10.19
2023-05-12T19:43:17.785Z,10.25
2023-05-12T19:46:20.452Z,10.20
2023-05-12T19:49:23.088Z,10.19
2023-05-12T19:52:25.520Z,10.19
2023-05-12T19:55:28.173Z,10.19
2023-05-12T19:58:30.507Z,10.26
2023-05-12T20:01:33.135Z,10.20
2023-05-12T20:04:35.837Z,10.28
2023-05-12T20:07:39.049Z,10.25
2023-05-12T20:10:41.861Z,10.26
2023-05-12T20:13:44.342Z,10.23
2023-05-12T20:16:47.282Z,10.29
2023-05-12T20:19:49.612Z,10.29
2023-05-12T20:22:52.358Z,10.32
2023-05-12T20:25:54.745Z,10.36
2023-05-12T20:28:57.399Z,10.41
2023-05-12T20:31:59.738Z,10.36
2023-05-12T20:35:03.349Z,10.35
2023-05-12T20:38:05.795Z,10.32
2023-05-12T20:41:08.684Z,10.33
2023-05-12T20:44:11.000Z,10.30
2023-05-12T20:47:13.950Z,10.29
2023-05-12T20:50:17.023Z,10.32
2023-05-12T20:53:19.658Z,10.30
2023-05-12T20:56:26.505Z,10.30
2023-05-12T20:59:29.100Z,10.34
2023-05-12T21:02:31.654Z,10.41
2023-05-12T21:05:34.291Z,10.47
2023-05-12T21:08:36.618Z,10.43
2023-05-12T21:11:39.250Z,10.40
2023-05-12T21:14:42.233Z,10.37
2023-05-12T21:17:44.957Z,10.43
2023-05-12T21:20:47.343Z,10.41
2023-05-12T21:23:50.015Z,10.40
2023-05-12T21:26:52.309Z,10.41
2023-05-12T21:29:54.946Z,10.47
2023-05-12T21:32:57.326Z,10.48
2023-05-12T21:35:59.912Z,10.50
2023-05-12T21:39:02.345Z,10.55
2023-05-12T21:42:05.144Z,10.51
2023-05-12T21:45:07.798Z,10.55
2023-05-12T21:48:10.501Z,10.57
2023-05-12T21:51:12.905Z,10.60
2023-05-12T21:54:15.531Z,10.58
2023-05-12T21:57:18.103Z,10.63
2023-05-12T22:00:21.698Z,10.68
2023-05-12T22:03:25.463Z,10.63
2023-05-12T22:06:27.849Z,10.66
2023-05-12T22:09:31.309Z,10.67
2023-05-12T22:12:33.816Z,10.61
2023-05-12T22:15:36.458Z,10.63
2023-05-12T22:18:38.787Z,10.66
2023-05-12T22:21:41.379Z,10.65
2023-05-12T22:24:43.873Z,10.66
2023-05-12T22:27:46.520Z,10.64
2023-05-12T22:30:48.810Z,10.65
2023-05-12T22:33:51.417Z,10.62
2023-05-12T22:36:53.665Z,10.69
2023-05-12T22:39:56.184Z,10.66
2023-05-12T22:42:58.607Z,10.69
2023-05-12T22:46:01.332Z,10.69
2023-05-12T22:49:03.607Z,10.69
2023-05-12T22:52:06.563Z,10.70
2023-05-12T22:55:09.161Z,10.66
2023-05-12T22:58:11.916Z,10.68
2023-05-12T23:01:14.331Z,10.64
2023-05-12T23:04:17.099Z,10.64
2023-05-12T23:07:19.502Z,10.66
2023-05-12T23:10:22.318Z,10.67
2023-05-12T23:13:24.760Z,10.66
2023-05-12T23:16:27.444Z,10.64
2023-05-12T23:19:29.750Z,10.62
2023-05-12T23:22:32.357Z,10.67
2023-05-12T23:25:35.367Z,10.66
2023-05-12T23:28:37.979Z,10.67
2023-05-12T23:31:40.268Z,10.66
2023-05-12T23:34:42.922Z,10.65
2023-05-12T23:37:45.277Z,10.63
2023-05-12T23:40:47.827Z,10.64
2023-05-12T23:43:50.106Z,10.60
2023-05-12T23:46:52.669Z,10.56
2023-05-12T23:49:55.000Z,10.62
2023-05-12T23:52:57.703Z,10.67
2023-05-12T23:56:00.058Z,10.61
2023-05-12T23:59:02.814Z,10.59
